Time;durP1;ratioP1;P1;durP2;ratioP2;P2;SDS_P1;SDS_P2;PMS_P1;PMS_P2;Temp;Humidity;BMP_temperature;BMP_pressure;BME280_temperature;BME280_humidity;BME280_pressure;Samples;Min_cycle;Max_cycle;Signal;HPM_P1;HPM_P2
2022/09/23 00:00:11;;;;;;;3.58;1.65;;;;;;;12.29;67.71;100645.44;5055975;28;20051;-80
2022/09/23 00:02:37;;;;;;;3.70;1.70;;;;;;;12.28;67.89;100636.25;5044565;28;20053;-80
2022/09/23 00:05:02;;;;;;;2.05;1.52;;;;;;;12.26;67.49;100638.53;5028491;28;20040;-80
2022/09/23 00:07:28;;;;;;;1.77;1.27;;;;;;;12.25;67.68;100636.84;5044044;28;20056;-79
2022/09/23 00:09:54;;;;;;;2.88;1.52;;;;;;;12.24;68.00;100635.22;5057587;28;20032;-80
2022/09/23 00:12:20;;;;;;;2.80;1.58;;;;;;;12.21;67.79;100626.63;5044426;28;20039;-80
2022/09/23 00:14:46;;;;;;;2.78;1.90;;;;;;;12.17;68.04;100623.59;5042804;28;20028;-80
2022/09/23 00:17:12;;;;;;;3.38;1.83;;;;;;;12.19;68.07;100626.94;5037170;28;20094;-80
2022/09/23 00:19:39;;;;;;;1.90;1.23;;;;;;;12.18;68.82;100625.28;5027491;28;20024;-79
2022/09/23 00:22:04;;;;;;;2.78;1.73;;;;;;;12.16;68.35;100632.28;5016723;28;20393;-79
2022/09/23 00:24:31;;;;;;;4.03;1.70;;;;;;;12.13;69.21;100627.31;5044428;28;20077;-80
2022/09/23 00:26:58;;;;;;;1.73;1.50;;;;;;;12.09;68.89;100621.53;5043001;28;20540;-80
2022/09/23 00:29:23;;;;;;;2.95;1.48;;;;;;;12.12;68.46;100612.56;5077774;28;20039;-80
2022/09/23 00:31:49;;;;;;;2.85;1.88;;;;;;;12.10;69.04;100611.22;5027369;28;20060;-80
2022/09/23 00:34:15;;;;;;;5.75;1.92;;;;;;;12.09;68.78;100618.75;5060879;28;20389;-79
2022/09/23 00:36:41;;;;;;;2.78;1.60;;;;;;;12.07;69.32;100621.00;5034138;28;20369;-80
2022/09/23 00:39:07;;;;;;;2.67;1.55;;;;;;;12.07;69.63;100619.03;5061157;28;20035;-80
2022/09/23 00:41:34;;;;;;;4.78;2.17;;;;;;;12.11;69.42;100621.22;5060194;28;20481;-80
2022/09/23 00:44:00;;;;;;;3.60;1.48;;;;;;;12.09;69.10;100621.53;5062574;28;20055;-79
2022/09/23 00:46:34;;;;;;;3.60;1.85;;;;;;;12.05;69.02;100610.16;5033129;28;20032;-80
2022/09/23 00:49:05;;;;;;;2.47;1.58;;;;;;;12.06;69.42;100616.53;5023300;28;20056;-79
2022/09/23 00:51:36;;;;;;;3.38;1.42;;;;;;;12.02;69.63;100610.75;5029330;28;20041;-80
2022/09/23 00:54:01;;;;;;;2.63;1.58;;;;;;;12.00;69.83;100615.78;5039423;28;20379;-80
2022/09/23 00:56:27;;;;;;;3.90;1.63;;;;;;;12.02;69.72;100615.50;5028684;28;20111;-81
2022/09/23 00:58:52;;;;;;;3.00;1.70;;;;;;;11.99;69.72;100616.94;5014743;28;20032;-80
2022/09/23 01:01:18;;;;;;;2.80;1.50;;;;;;;11.99;69.97;100622.50;5017645;28;20095;-81
2022/09/23 01:03:43;;;;;;;4.78;1.77;;;;;;;11.97;69.83;100621.13;5030917;28;20047;-80
2022/09/23 01:06:09;;;;;;;5.22;1.83;;;;;;;11.98;69.91;100625.56;5023048;28;20112;-80
2022/09/23 01:08:35;;;;;;;4.13;1.90;;;;;;;11.94;69.88;100614.22;5007174;28;20025;-80
2022/09/23 01:11:21;;;;;;;3.60;1.98;;;;;;;11.94;69.45;100621.75;4990536;28;20029;-80
2022/09/23 01:14:07;;;;;;;3.20;1.92;;;;;;;11.89;70.10;100619.03;5050713;28;20029;-80
2022/09/23 01:16:37;;;;;;;3.85;1.75;;;;;;;11.89;70.27;100624.59;5046818;28;20029;-80
2022/09/23 01:19:10;;;;;;;3.13;1.70;;;;;;;11.87;70.04;100610.16;5034026;28;20108;-80
2022/09/23 01:21:57;;;;;;;4.00;1.77;;;;;;;11.85;70.37;100613.22;5027043;28;20039;-80
2022/09/23 01:24:22;;;;;;;2.55;1.52;;;;;;;11.83;69.95;100619.06;5042528;28;20114;-80
2022/09/23 01:26:58;;;;;;;2.10;1.60;;;;;;;11.80;69.94;100614.09;5050757;28;20024;-80
2022/09/23 01:29:45;;;;;;;2.30;1.83;;;;;;;11.79;70.73;100619.97;5010516;28;20039;-80
2022/09/23 01:32:33;;;;;;;4.47;1.95;;;;;;;11.78;70.24;100616.38;5051512;28;20029;-80
2022/09/23 01:35:06;;;;;;;2.42;1.90;;;;;;;11.77;70.71;100613.88;5042521;28;20032;-80
2022/09/23 01:37:37;;;;;;;4.35;1.88;;;;;;;11.75;70.78;100614.16;5058657;28;20035;-79
2022/09/23 01:40:18;;;;;;;3.10;1.77;;;;;;;11.72;70.84;100611.16;5042413;28;20083;-80
2022/09/23 01:42:54;;;;;;;3.40;1.67;;;;;;;11.71;70.81;100609.53;5006032;28;20063;-80
2022/09/23 01:45:42;;;;;;;3.70;2.05;;;;;;;11.71;70.77;100609.53;5039408;28;20025;-80
2022/09/23 01:48:17;;;;;;;3.08;1.70;;;;;;;11.69;71.28;100601.47;4999115;28;20033;-80
2022/09/23 01:51:04;;;;;;;3.10;1.77;;;;;;;11.69;71.45;100589.50;5050636;28;20041;-80
2022/09/23 01:53:48;;;;;;;2.75;1.77;;;;;;;11.66;71.60;100596.50;5014790;28;20071;-80
2022/09/23 01:56:21;;;;;;;3.50;1.85;;;;;;;11.67;71.36;100595.38;5051394;28;20086;-80
2022/09/23 01:59:01;;;;;;;3.47;1.58;;;;;;;11.66;71.66;100596.50;5045923;28;20035;-80
2022/09/23 02:01:39;;;;;;;2.55;1.90;;;;;;;11.69;71.35;100592.28;5030852;28;20071;-80
2022/09/23 02:04:30;;;;;;;3.28;1.80;;;;;;;11.66;71.97;100585.38;5042393;28;20032;-80
2022/09/23 02:07:05;;;;;;;2.85;1.65;;;;;;;11.64;71.68;100582.06;5037668;28;20040;-80
2022/09/23 02:09:55;;;;;;;4.05;1.85;;;;;;;11.66;72.05;100573.41;5040206;28;20043;-80
2022/09/23 02:12:23;;;;;;;3.33;1.48;;;;;;;11.66;72.04;100577.03;5052484;28;20386;-80
2022/09/23 02:14:55;;;;;;;3.33;1.98;;;;;;;11.67;71.92;100575.06;5025465;28;20020;-79
2022/09/23 02:17:45;;;;;;;4.68;2.13;;;;;;;11.66;72.37;100571.47;5010304;28;20071;-80
2022/09/23 02:20:13;;;;;;;3.53;1.67;;;;;;;11.64;72.56;100565.38;5067713;28;20032;-80
2022/09/23 02:23:06;;;;;;;4.22;2.20;;;;;;;11.63;72.73;100564.53;5037552;28;20034;-80
2022/09/23 02:26:01;;;;;;;2.80;2.13;;;;;;;11.62;72.72;100567.63;5054262;28;20028;-81
2022/09/23 02:28:34;;;;;;;5.28;2.10;;;;;;;11.65;72.74;100566.22;5030030;28;20067;-80
2022/09/23 02:31:11;;;;;;;2.30;1.80;;;;;;;11.67;72.92;100561.16;5042287;28;20036;-80
2022/09/23 02:33:48;;;;;;;7.40;1.98;;;;;;;11.67;72.72;100563.94;5042168;28;20439;-80
2022/09/23 02:36:30;;;;;;;2.88;1.77;;;;;;;11.66;73.17;100557.56;5041699;28;20025;-81
2022/09/23 02:38:58;;;;;;;2.30;1.80;;;;;;;11.68;72.96;100555.31;5038267;28;20033;-80
2022/09/23 02:41:31;;;;;;;2.72;1.85;;;;;;;11.67;72.64;100548.06;5032030;28;20388;-81
2022/09/23 02:44:06;;;;;;;2.90;2.00;;;;;;;11.68;72.97;100544.19;5040856;28;20111;-80
2022/09/23 02:46:32;;;;;;;3.15;1.85;;;;;;;11.69;73.08;100540.25;5023241;28;20035;-80
2022/09/23 02:49:00;;;;;;;2.92;2.00;;;;;;;11.70;73.18;100541.94;5040788;28;20384;-80
2022/09/23 02:51:27;;;;;;;3.17;2.03;;;;;;;11.69;72.84;100556.94;5031833;28;20071;-80
2022/09/23 02:53:56;;;;;;;3.35;1.88;;;;;;;11.72;73.26;100553.56;5058317;28;20094;-79
2022/09/23 02:56:21;;;;;;;2.03;1.60;;;;;;;11.73;73.70;100558.03;5052329;28;20473;-80
2022/09/23 02:58:47;;;;;;;2.20;1.70;;;;;;;11.73;73.25;100555.22;5041803;28;20032;-79
2022/09/23 03:01:32;;;;;;;2.65;1.77;;;;;;;11.72;72.86;100556.34;5025284;28;20072;-79
2022/09/23 03:04:16;;;;;;;3.20;1.90;;;;;;;11.75;72.92;100552.13;5068437;28;20484;-80
2022/09/23 03:07:05;;;;;;;3.85;1.92;;;;;;;11.72;73.67;100549.97;5054553;28;20020;-80
2022/09/23 03:09:36;;;;;;;3.00;1.85;;;;;;;11.71;73.75;100551.91;5055453;28;20045;-80
2022/09/23 03:12:21;;;;;;;2.50;1.70;;;;;;;11.73;73.21;100546.88;5068129;28;20090;-77
2022/09/23 03:15:16;;;;;;;2.50;2.00;;;;;;;11.71;73.74;100539.97;5060996;28;20130;-81
2022/09/23 03:18:22;;;;;;;4.72;1.80;;;;;;;11.71;73.61;100543.56;5020057;28;20040;-80
2022/09/23 03:20:49;;;;;;;3.08;1.90;;;;;;;11.71;73.44;100529.66;5025803;28;20032;-81
2022/09/23 03:23:14;;;;;;;2.75;1.60;;;;;;;11.71;73.85;100532.44;5054317;28;20032;-80
2022/09/23 03:25:41;;;;;;;4.55;1.88;;;;;;;11.73;73.57;100529.34;5022896;28;20140;-80
2022/09/23 03:28:07;;;;;;;2.60;1.98;;;;;;;11.72;73.45;100514.63;5049215;28;20448;-80
2022/09/23 03:30:36;;;;;;;4.00;1.88;;;;;;;11.74;73.20;100517.09;5039635;28;20033;-80
2022/09/23 03:33:03;;;;;;;1.95;1.67;;;;;;;11.74;73.61;100515.16;5028703;28;20051;-81
2022/09/23 03:35:30;;;;;;;3.00;2.13;;;;;;;11.72;73.93;100511.00;5030457;28;20078;-80
2022/09/23 03:37:59;;;;;;;4.00;1.70;;;;;;;11.74;73.47;100517.94;5039495;28;20366;-80
2022/09/23 03:40:30;;;;;;;2.63;1.88;;;;;;;11.75;73.54;100508.44;5041535;28;20377;-80
2022/09/23 03:42:56;;;;;;;2.97;1.70;;;;;;;11.73;74.38;100507.09;5041593;28;20107;-80
2022/09/23 03:45:24;;;;;;;4.47;2.10;;;;;;;11.71;74.05;100510.19;5044893;28;20110;-81
2022/09/23 03:47:50;;;;;;;2.97;1.73;;;;;;;11.75;73.86;100511.22;5038736;28;20028;-80
2022/09/23 03:50:16;;;;;;;2.15;1.75;;;;;;;11.73;73.98;100502.38;5045668;28;20040;-80
2022/09/23 03:52:41;;;;;;;3.17;2.00;;;;;;;11.72;73.81;100509.03;5044459;28;20047;-80
2022/09/23 03:55:07;;;;;;;2.90;2.30;;;;;;;11.72;73.82;100506.25;5044723;28;20028;-80
2022/09/23 03:57:33;;;;;;;4.28;1.80;;;;;;;11.72;74.03;100500.69;5060810;28;20052;-81
2022/09/23 03:59:58;;;;;;;6.05;2.10;;;;;;;11.70;73.80;100493.78;5058072;28;20032;-80
2022/09/23 04:02:25;;;;;;;2.13;1.65;;;;;;;11.74;73.88;100484.53;5044239;28;20045;-81
2022/09/23 04:04:50;;;;;;;2.17;1.60;;;;;;;11.73;74.54;100491.25;5041784;28;20397;-81
2022/09/23 04:07:16;;;;;;;2.42;1.85;;;;;;;11.73;74.00;100490.41;5060781;28;20032;-80
2022/09/23 04:09:41;;;;;;;3.38;1.90;;;;;;;11.76;74.19;100485.06;5031007;28;20512;-81
2022/09/23 04:12:07;;;;;;;2.85;1.90;;;;;;;11.71;74.15;100487.94;5027650;28;20021;-82
2022/09/23 04:14:32;;;;;;;3.75;1.85;;;;;;;11.68;74.10;100477.41;5030929;28;20028;-82
2022/09/23 04:16:58;;;;;;;5.60;1.90;;;;;;;11.68;74.15;100482.97;5037531;28;20058;-81
2022/09/23 04:19:23;;;;;;;3.90;1.88;;;;;;;11.66;74.50;100476.88;5018830;28;20021;-81
2022/09/23 04:21:49;;;;;;;2.13;1.63;;;;;;;11.62;74.57;100489.75;5060758;28;20032;-81
2022/09/23 04:24:15;;;;;;;3.75;1.88;;;;;;;11.63;74.42;100483.88;5025309;28;20602;-81
2022/09/23 04:26:40;;;;;;;2.17;1.77;;;;;;;11.63;74.49;100491.41;5033777;28;20555;-81
2022/09/23 04:29:06;;;;;;;4.38;1.90;;;;;;;11.62;74.71;100481.41;5045906;28;20070;-81
2022/09/23 04:31:32;;;;;;;2.08;1.75;;;;;;;11.66;74.95;100489.97;5027142;28;20413;-81
2022/09/23 04:33:57;;;;;;;4.38;1.90;;;;;;;11.63;74.89;100491.41;5025120;28;20474;-80
2022/09/23 04:36:23;;;;;;;3.60;2.10;;;;;;;11.61;75.42;100491.69;5059527;28;20059;-81
2022/09/23 04:38:48;;;;;;;2.80;2.05;;;;;;;11.59;74.90;100487.56;5055964;28;20028;-81
2022/09/23 04:41:14;;;;;;;2.42;1.83;;;;;;;11.59;74.92;100488.41;5026912;28;20114;-81
2022/09/23 04:43:41;;;;;;;2.90;2.13;;;;;;;11.58;75.10;100483.13;5043603;28;20039;-81
2022/09/23 04:46:07;;;;;;;3.25;2.33;;;;;;;11.57;74.83;100487.03;5043884;28;20485;-81
2022/09/23 04:48:34;;;;;;;3.75;2.25;;;;;;;11.55;75.10;100492.88;5042077;28;20423;-81
2022/09/23 04:51:03;;;;;;;3.40;1.98;;;;;;;11.54;75.42;100494.03;5079778;28;20032;-81
2022/09/23 04:53:29;;;;;;;4.60;2.67;;;;;;;11.54;75.44;100493.22;5049870;28;20032;-81
2022/09/23 04:56:03;;;;;;;3.47;2.00;;;;;;;11.54;75.25;100499.59;5026768;28;20040;-81
2022/09/23 04:58:28;;;;;;;3.92;2.50;;;;;;;11.55;75.51;100501.25;5057192;28;20020;-81
2022/09/23 05:00:54;;;;;;;3.95;2.00;;;;;;;11.55;75.28;100500.41;5068382;28;20032;-80
2022/09/23 05:03:19;;;;;;;2.95;2.13;;;;;;;11.60;75.02;100506.72;5025655;28;20374;-81
2022/09/23 05:05:45;;;;;;;3.13;2.00;;;;;;;11.53;75.18;100509.06;5007203;28;20036;-81
2022/09/23 05:08:10;;;;;;;2.83;1.90;;;;;;;11.54;75.63;100513.50;5004472;28;20021;-80
2022/09/23 05:10:36;;;;;;;3.42;1.90;;;;;;;11.52;75.13;100518.53;5039546;28;20055;-80
2022/09/23 05:13:01;;;;;;;2.55;1.92;;;;;;;11.54;74.96;100518.25;5006686;28;20021;-80
2022/09/23 05:15:27;;;;;;;3.13;1.92;;;;;;;11.54;75.30;100532.16;5032055;28;20021;-81
2022/09/23 05:17:55;;;;;;;2.65;1.90;;;;;;;11.55;74.90;100531.00;5033897;28;20025;-80
2022/09/23 05:20:21;;;;;;;4.32;2.15;;;;;;;11.58;75.03;100528.44;5037149;28;20067;-81
2022/09/23 05:22:46;;;;;;;2.85;1.80;;;;;;;11.53;75.29;100536.88;5026501;28;20017;-80
2022/09/23 05:25:12;;;;;;;5.00;1.98;;;;;;;11.52;76.03;100535.22;5027690;28;20039;-80
2022/09/23 05:27:37;;;;;;;2.72;2.00;;;;;;;11.53;75.26;100525.75;5000596;28;20024;-80
2022/09/23 05:30:03;;;;;;;3.80;1.80;;;;;;;11.53;75.54;100525.75;5039332;28;20028;-80
2022/09/23 05:32:28;;;;;;;3.58;1.90;;;;;;;11.53;75.31;100524.91;5006781;28;20028;-81
2022/09/23 05:34:54;;;;;;;2.60;1.65;;;;;;;11.53;75.79;100530.47;5020566;28;20040;-80
2022/09/23 05:37:20;;;;;;;2.95;1.92;;;;;;;11.59;75.13;100529.31;5039462;28;20032;-80
2022/09/23 05:39:45;;;;;;;3.00;2.00;;;;;;;11.55;75.61;100525.44;5012425;28;20056;-80
2022/09/23 05:42:11;;;;;;;3.47;1.80;;;;;;;11.58;75.75;100522.06;5011813;28;20489;-81
2022/09/23 05:44:38;;;;;;;2.38;1.70;;;;;;;11.59;75.93;100523.75;5039367;28;20024;-81
2022/09/23 05:47:03;;;;;;;3.13;1.60;;;;;;;11.56;75.46;100529.88;5025342;28;20033;-80
2022/09/23 05:49:29;;;;;;;2.45;1.75;;;;;;;11.56;75.50;100525.16;5047625;28;20029;-80
2022/09/23 05:51:55;;;;;;;2.35;1.63;;;;;;;11.59;75.49;100532.09;5035146;28;20032;-76
2022/09/23 05:54:20;;;;;;;3.85;1.70;;;;;;;11.59;75.61;100529.31;5057090;28;20582;-80
2022/09/23 05:56:46;;;;;;;19.63;8.00;;;;;;;11.55;76.09;100531.84;5005959;28;20033;-79
2022/09/23 05:59:11;;;;;;;21.25;6.85;;;;;;;11.59;76.11;100523.75;5057075;28;20091;-76
2022/09/23 06:01:38;;;;;;;20.23;7.00;;;;;;;11.57;76.88;100520.41;5046859;28;20048;-80
2022/09/23 06:04:04;;;;;;;15.70;4.97;;;;;;;11.58;76.29;100513.72;5052024;28;20032;-81
2022/09/23 06:06:31;;;;;;;13.32;4.53;;;;;;;11.59;76.80;100509.81;5038985;28;20480;-82
2022/09/23 06:08:58;;;;;;;10.13;4.00;;;;;;;11.60;76.80;100508.69;5016278;28;20058;-81
2022/09/23 06:11:23;;;;;;;10.05;3.45;;;;;;;11.60;76.24;100511.47;5038999;28;20028;-81
2022/09/23 06:13:55;;;;;;;11.05;3.65;;;;;;;11.59;76.36;100507.03;5016027;28;20593;-81
2022/09/23 06:16:21;;;;;;;6.00;2.92;;;;;;;11.60;76.11;100512.28;5056838;28;20028;-79
2022/09/23 06:18:46;;;;;;;7.22;2.72;;;;;;;11.61;76.41;100513.94;5053671;28;20462;-80
2022/09/23 06:21:15;;;;;;;5.03;2.63;;;;;;;11.61;76.67;100515.91;5021974;28;20026;-80
2022/09/23 06:23:41;;;;;;;5.75;2.67;;;;;;;11.59;76.49;100513.44;5032654;28;20047;-81
2022/09/23 06:26:08;;;;;;;4.20;2.55;;;;;;;11.62;76.61;100512.81;5045133;28;20052;-80
2022/09/23 06:28:35;;;;;;;5.07;2.70;;;;;;;11.60;77.08;100508.69;5035564;28;20032;-80
2022/09/23 06:31:02;;;;;;;8.27;3.50;;;;;;;11.64;76.77;100515.28;5041702;28;20025;-80
2022/09/23 06:33:28;;;;;;;4.78;2.88;;;;;;;11.68;76.56;100516.34;5009729;28;20031;-80
2022/09/23 06:36:01;;;;;;;4.53;2.60;;;;;;;11.67;76.78;100513.88;5026477;28;20115;-81
2022/09/23 06:38:27;;;;;;;3.08;2.35;;;;;;;11.71;76.61;100514.94;5041857;28;20032;-80
2022/09/23 06:40:54;;;;;;;6.38;2.30;;;;;;;11.71;76.46;100507.41;5041628;28;20078;-81
2022/09/23 06:43:20;;;;;;;2.95;2.17;;;;;;;11.71;76.29;100517.72;5053550;28;20390;-80
2022/09/23 06:45:46;;;;;;;3.45;1.98;;;;;;;11.72;76.54;100506.25;5041906;28;20094;-80
2022/09/23 06:48:11;;;;;;;4.03;2.15;;;;;;;11.73;76.99;100509.88;5021082;28;20028;-77
2022/09/23 06:50:37;;;;;;;3.22;2.30;;;;;;;11.73;76.99;100496.81;5038635;28;20078;-81
2022/09/23 06:53:03;;;;;;;4.88;2.40;;;;;;;11.74;76.64;100504.00;5041794;28;20082;-80
2022/09/23 06:55:28;;;;;;;3.60;2.05;;;;;;;11.74;77.20;100504.00;5025177;28;20039;-81
2022/09/23 06:57:54;;;;;;;6.30;2.72;;;;;;;11.78;76.83;100507.00;5025324;28;20032;-81
2022/09/23 07:00:20;;;;;;;5.30;2.25;;;;;;;11.82;76.91;100505.28;5081263;28;20062;-80
2022/09/23 07:02:45;;;;;;;3.42;2.05;;;;;;;11.84;77.60;100503.03;5062027;28;20053;-80
2022/09/23 07:05:11;;;;;;;5.55;2.50;;;;;;;11.84;76.30;100491.91;5045505;28;20028;-80
2022/09/23 07:07:37;;;;;;;8.80;2.78;;;;;;;11.87;76.56;100491.34;5019230;28;20032;-80
2022/09/23 07:10:04;;;;;;;5.13;2.72;;;;;;;11.88;76.46;100509.69;5032773;28;20378;-80
2022/09/23 07:12:30;;;;;;;5.70;2.72;;;;;;;11.91;76.77;100511.84;5023459;28;20036;-80
2022/09/23 07:14:56;;;;;;;6.57;2.70;;;;;;;11.92;77.11;100521.03;5065637;28;20028;-80
2022/09/23 07:17:23;;;;;;;8.05;3.22;;;;;;;11.95;76.41;100514.84;5047104;28;20035;-80
2022/09/23 07:19:49;;;;;;;5.90;2.80;;;;;;;11.99;76.64;100508.38;5037937;28;20064;-81
2022/09/23 07:22:14;;;;;;;4.68;2.42;;;;;;;12.03;77.31;100528.06;5020692;28;20512;-81
2022/09/23 07:24:40;;;;;;;5.50;2.40;;;;;;;12.04;76.44;100507.47;5074391;28;20550;-81
2022/09/23 07:27:05;;;;;;;5.85;2.75;;;;;;;12.07;76.21;100509.66;5063287;28;20025;-81
2022/09/23 07:29:31;;;;;;;4.20;2.40;;;;;;;12.08;76.85;100500.16;5041825;28;20025;-80
2022/09/23 07:31:56;;;;;;;6.15;3.50;;;;;;;12.12;77.53;100497.59;5018330;28;20028;-80
2022/09/23 07:34:22;;;;;;;6.47;2.60;;;;;;;12.15;77.73;100508.13;5021233;28;20044;-74
2022/09/23 07:36:52;;;;;;;5.43;2.38;;;;;;;12.17;76.71;100512.25;5072781;28;20064;-81
2022/09/23 07:39:18;;;;;;;10.23;2.88;;;;;;;12.19;77.00;100515.56;5061262;28;20027;-81
2022/09/23 07:41:43;;;;;;;5.85;2.58;;;;;;;12.22;76.96;100520.50;5065124;28;20020;-81
2022/09/23 07:44:10;;;;;;;6.20;2.95;;;;;;;12.26;77.04;100520.75;5041793;28;20107;-81
2022/09/23 07:46:36;;;;;;;10.52;4.30;;;;;;;12.29;79.67;100536.84;5041450;28;20111;-77
2022/09/23 07:49:02;;;;;;;6.82;3.70;;;;;;;12.30;80.09;100519.81;5063115;28;20024;-75
2022/09/23 07:51:33;;;;;;;6.47;3.60;;;;;;;12.35;78.22;100540.38;5044820;28;20469;-78
2022/09/23 07:53:58;;;;;;;8.07;3.30;;;;;;;12.38;78.67;100523.88;5015700;28;20048;-79
2022/09/23 07:56:25;;;;;;;5.32;3.70;;;;;;;12.40;78.10;100527.19;5045231;28;20036;-79
2022/09/23 07:59:02;;;;;;;6.53;3.47;;;;;;;12.45;78.95;100529.88;5091567;28;20059;-80
2022/09/23 08:01:38;;;;;;;9.95;3.30;;;;;;;12.49;78.99;100528.13;5058964;28;20041;-80
2022/09/23 08:04:16;;;;;;;6.13;3.33;;;;;;;12.55;78.22;100525.25;5035150;28;20021;-80
2022/09/23 08:06:49;;;;;;;6.13;3.47;;;;;;;12.59;78.87;100531.84;5028610;28;20029;-80
2022/09/23 08:09:15;;;;;;;;;;;;;;;12.63;78.07;100530.09;5044099;28;20411;-80
2022/09/23 08:11:40;;;;;;;6.13;3.17;;;;;;;12.67;78.73;100531.94;5067996;28;19912;-80
2022/09/23 08:14:10;;;;;;;4.05;2.80;;;;;;;12.71;78.73;100526.59;5050714;28;20025;-80
2022/09/23 08:16:36;;;;;;;6.43;3.20;;;;;;;12.78;77.70;100527.00;5032048;28;20036;-80
2022/09/23 08:19:01;;;;;;;7.07;3.80;;;;;;;12.81;81.62;100523.59;5052572;28;20036;-81
2022/09/23 08:21:27;;;;;;;4.05;3.03;;;;;;;12.88;80.67;100523.22;5058518;28;20684;-80
2022/09/23 08:23:52;;;;;;;6.32;3.13;;;;;;;12.95;78.77;100530.03;5053362;28;20035;-80
2022/09/23 08:26:18;;;;;;;5.25;3.08;;;;;;;12.99;78.64;100532.19;5027289;28;20028;-79
2022/09/23 08:28:44;;;;;;;8.32;3.67;;;;;;;13.04;78.29;100544.06;5020048;28;20029;-80
2022/09/23 08:31:11;;;;;;;5.85;3.22;;;;;;;13.11;79.20;100544.47;5042490;28;20513;-79
2022/09/23 08:33:36;;;;;;;7.85;3.05;;;;;;;13.16;78.20;100552.72;5027168;28;20075;-79
2022/09/23 08:36:02;;;;;;;5.65;2.65;;;;;;;13.24;76.99;100555.94;5061023;28;20028;-79
2022/09/23 08:38:27;;;;;;;4.68;2.58;;;;;;;13.30;77.36;100552.75;5080318;28;20161;-79
2022/09/23 08:41:05;;;;;;;7.43;2.72;;;;;;;13.36;76.69;100553.47;5052581;28;20071;-79
2022/09/23 08:43:32;;;;;;;6.85;2.47;;;;;;;13.43;75.89;100548.31;5053560;28;20111;-79
2022/09/23 08:46:00;;;;;;;4.25;2.50;;;;;;;13.50;76.28;100554.28;5027002;28;20036;-79
2022/09/23 08:48:28;;;;;;;7.70;3.05;;;;;;;13.57;76.59;100551.91;5068863;28;20036;-80
2022/09/23 08:51:04;;;;;;;5.07;2.85;;;;;;;13.63;75.74;100553.44;5038435;28;20059;-79
2022/09/23 08:53:36;;;;;;;5.70;3.00;;;;;;;13.73;79.80;100535.59;5074660;28;20033;-80
2022/09/23 08:56:16;;;;;;;6.97;4.00;;;;;;;13.77;78.50;100525.47;5044970;28;20027;-79
2022/09/23 08:58:59;;;;;;;8.40;4.57;;;;;;;13.88;81.19;100542.00;5040999;28;20078;-79
2022/09/23 09:01:25;;;;;;;6.63;3.63;;;;;;;13.95;77.58;100539.59;5081338;28;20052;-79
2022/09/23 09:03:55;;;;;;;3.90;2.53;;;;;;;14.00;75.49;100543.06;5040009;28;20052;-80
2022/09/23 09:06:26;;;;;;;7.50;3.25;;;;;;;14.10;77.67;100567.16;5030806;28;20051;-80
2022/09/23 09:08:55;;;;;;;7.72;5.25;;;;;;;14.18;82.62;100551.56;5071636;28;20035;-80
2022/09/23 09:11:22;;;;;;;6.07;3.70;;;;;;;14.22;78.94;100549.81;5026695;28;20031;-79
2022/09/23 09:13:54;;;;;;;10.05;4.05;;;;;;;14.30;77.41;100552.66;5045543;28;20120;-80
2022/09/23 09:16:24;;;;;;;;;;;;;;;14.39;80.37;100547.13;5037079;28;20040;-79
2022/09/23 09:18:54;;;;;;;4.28;3.25;;;;;;;14.46;77.46;100549.50;5067100;28;19962;-79
2022/09/23 09:21:23;;;;;;;6.18;3.40;;;;;;;14.53;76.27;100547.91;5064963;28;20477;-80
2022/09/23 09:23:57;;;;;;;6.63;3.47;;;;;;;14.63;75.64;100535.66;5077659;28;20020;-79
2022/09/23 09:26:26;;;;;;;5.65;2.80;;;;;;;14.69;75.63;100533.53;5060136;28;20546;-79
2022/09/23 09:28:57;;;;;;;7.07;3.70;;;;;;;14.75;76.67;100538.66;5059417;28;20082;-80
2022/09/23 09:31:32;;;;;;;8.27;3.80;;;;;;;14.84;77.41;100527.50;5032736;28;20047;-79
2022/09/23 09:34:02;;;;;;;8.85;3.88;;;;;;;14.93;77.88;100517.22;5055995;28;20042;-80
2022/09/23 09:36:34;;;;;;;7.60;3.70;;;;;;;14.98;78.25;100519.00;5043591;28;20032;-79
2022/09/23 09:39:01;;;;;;;10.32;4.28;;;;;;;15.04;78.85;100522.47;5069937;28;20089;-79
2022/09/23 09:41:30;;;;;;;9.70;4.10;;;;;;;15.11;76.46;100520.06;5072180;28;20061;-80
2022/09/23 09:43:58;;;;;;;7.78;3.80;;;;;;;15.18;77.54;100514.78;5038545;28;20401;-80
2022/09/23 09:47:05;;;;;;;8.15;3.45;;;;;;;15.27;77.81;100517.63;5058824;28;20055;-79
2022/09/23 09:49:38;;;;;;;8.30;5.60;;;;;;;15.35;79.09;100511.22;5055185;28;20028;-80
2022/09/23 09:52:15;;;;;;;8.52;4.70;;;;;;;15.42;78.33;100506.78;5078713;28;20032;-80
2022/09/23 09:54:42;;;;;;;9.57;4.18;;;;;;;15.48;77.17;100510.25;5059481;28;20393;-80
2022/09/23 09:57:15;;;;;;;7.07;4.18;;;;;;;15.57;76.41;100501.84;5027644;28;20104;-77
2022/09/23 09:59:43;;;;;;;10.82;4.03;;;;;;;15.65;76.03;100501.03;5053159;28;20397;-80
2022/09/23 10:02:34;;;;;;;7.28;3.85;;;;;;;15.73;76.32;100502.25;5041440;28;20469;-80
2022/09/23 10:05:02;;;;;;;6.85;3.33;;;;;;;15.82;75.35;100503.91;5031032;28;20041;-80
2022/09/23 10:07:29;;;;;;;4.88;3.10;;;;;;;15.90;75.46;100498.63;5056287;28;20016;-80
2022/09/23 10:09:55;;;;;;;7.25;3.70;;;;;;;15.99;75.34;100496.63;5033225;28;20032;-80
2022/09/23 10:12:24;;;;;;;4.88;2.92;;;;;;;16.07;75.21;100505.03;5041657;28;20039;-80
2022/09/23 10:14:54;;;;;;;7.63;3.40;;;;;;;16.18;75.30;100499.88;5045732;28;20553;-80
2022/09/23 10:17:30;;;;;;;7.68;3.95;;;;;;;16.26;74.53;100479.44;5053337;28;20021;-80
2022/09/23 10:19:59;;;;;;;9.18;2.92;;;;;;;16.34;73.22;100488.19;5067542;28;20028;-80
2022/09/23 10:22:28;;;;;;;7.82;3.20;;;;;;;16.41;73.38;100485.66;5058444;28;20082;-80
2022/09/23 10:24:56;;;;;;;6.72;3.45;;;;;;;16.48;73.79;100481.19;5058223;28;20028;-79
2022/09/23 10:27:40;;;;;;;4.53;2.60;;;;;;;16.54;73.03;100481.84;5021877;28;20024;-80
2022/09/23 10:30:22;;;;;;;8.02;3.50;;;;;;;16.60;74.76;100479.66;5056842;28;20032;-80
2022/09/23 10:32:48;;;;;;;6.20;2.70;;;;;;;16.64;72.99;100478.69;5026185;28;20033;-80
2022/09/23 10:35:20;;;;;;;7.72;2.67;;;;;;;16.69;72.93;100480.50;5041852;28;20028;-79
2022/09/23 10:37:56;;;;;;;5.25;2.95;;;;;;;16.74;72.98;100475.50;5040433;28;20056;-79
2022/09/23 10:46:38;;;;;;;7.10;4.40;;;;;;;16.81;74.48;100499.44;5062185;28;20110;-80
2022/09/23 10:49:08;;;;;;;6.30;3.90;;;;;;;16.84;73.64;100487.53;5053455;28;20113;-80
2022/09/23 10:52:04;;;;;;;6.80;4.68;;;;;;;16.87;76.52;100487.69;5078026;28;20469;-80
2022/09/23 10:55:09;;;;;;;9.85;4.80;;;;;;;16.88;74.60;100482.88;5041645;28;20033;-80
2022/09/23 10:57:44;;;;;;;6.72;4.03;;;;;;;16.93;73.94;100493.91;5046153;28;20028;-80
2022/09/23 11:00:28;;;;;;;6.88;3.28;;;;;;;16.94;74.47;100485.19;5055878;28;20132;-80
2022/09/23 11:03:16;;;;;;;9.63;3.28;;;;;;;16.98;73.51;100499.34;5057690;28;20089;-80
2022/09/23 11:05:59;;;;;;;7.93;2.80;;;;;;;17.03;74.18;100501.16;5094937;28;20032;-80
2022/09/23 11:08:36;;;;;;;7.78;3.38;;;;;;;17.07;74.63;100505.72;5073445;28;20028;-81
2022/09/23 11:11:32;;;;;;;6.90;3.40;;;;;;;17.09;74.31;100492.19;5051278;28;20037;-80
2022/09/23 11:14:32;;;;;;;10.55;3.28;;;;;;;17.18;74.37;100492.94;5022059;28;20039;-80
2022/09/23 11:17:26;;;;;;;11.48;3.70;;;;;;;17.25;72.88;100497.22;5056689;28;20108;-79
2022/09/23 11:20:27;;;;;;;9.73;4.30;;;;;;;17.33;73.23;100490.75;5040968;28;20036;-80
2022/09/23 11:23:06;;;;;;;7.00;3.15;;;;;;;17.39;72.16;100487.38;5040883;28;20020;-79
2022/09/23 11:25:44;;;;;;;8.05;4.20;;;;;;;17.49;71.75;100483.34;5054503;28;20035;-80
2022/09/23 11:28:22;;;;;;;12.07;5.28;;;;;;;17.57;71.01;100490.06;5056583;28;20089;-80
2022/09/23 11:31:06;;;;;;;8.55;5.15;;;;;;;17.64;71.64;100474.31;5037002;28;20078;-80
2022/09/23 11:33:44;;;;;;;8.50;4.82;;;;;;;17.76;71.94;100473.56;5064736;28;20034;-80
2022/09/23 11:36:14;;;;;;;7.43;3.40;;;;;;;17.82;70.70;100466.59;5073312;28;20032;-79
2022/09/23 11:38:42;;;;;;;6.22;3.78;;;;;;;17.94;69.34;100487.47;5044245;28;20520;-80
2022/09/23 11:41:21;;;;;;;5.63;3.40;;;;;;;18.05;70.11;100477.44;5062180;28;20039;-80
2022/09/23 11:43:52;;;;;;;9.68;5.32;;;;;;;18.15;69.32;100474.22;5077784;28;20106;-80
2022/09/23 11:46:27;;;;;;;6.40;3.75;;;;;;;18.24;68.08;100477.75;5081221;28;20499;-80